createdAt,value
2022-11-04T00:02:06.105Z,8.29
2022-11-04T00:04:32.668Z,8.27
2022-11-04T00:06:59.210Z,8.29
2022-11-04T00:09:30.471Z,8.28
2022-11-04T00:12:16.626Z,8.38
2022-11-04T00:14:43.206Z,8.45
2022-11-04T00:17:22.337Z,8.63
2022-11-04T00:20:09.989Z,8.73
2022-11-04T00:22:56.245Z,8.78
2022-11-04T00:28:34.194Z,8.78
2022-11-04T00:31:22.303Z,8.89
2022-11-04T00:33:49.994Z,8.96
2022-11-04T00:36:16.675Z,8.99
2022-11-04T00:38:43.340Z,8.96
2022-11-04T00:41:28.149Z,8.99
2022-11-04T00:43:57.784Z,8.97
2022-11-04T00:46:24.480Z,9.00
2022-11-04T00:48:51.016Z,9.02
2022-11-04T00:51:17.542Z,8.97
2022-11-04T00:53:44.125Z,8.95
2022-11-04T00:56:10.592Z,8.92
2022-11-04T00:58:37.294Z,8.95
2022-11-04T01:01:11.736Z,8.95
2022-11-04T01:03:39.253Z,8.86
2022-11-04T01:06:06.210Z,8.79
2022-11-04T01:08:32.839Z,8.76
2022-11-04T01:11:07.141Z,8.75
2022-11-04T01:13:34.582Z,8.67
2022-11-04T01:16:06.987Z,8.67
2022-11-04T01:18:34.050Z,8.60
2022-11-04T01:21:13.056Z,8.61
2022-11-04T01:23:41.201Z,8.50
2022-11-04T01:26:10.330Z,8.49
2022-11-04T01:28:36.843Z,8.47
2022-11-04T01:31:12.556Z,8.43
2022-11-04T01:33:39.712Z,8.37
2022-11-04T01:36:08.527Z,8.29
2022-11-04T01:38:35.217Z,8.25
2022-11-04T01:41:02.499Z,8.20
2022-11-04T01:43:45.185Z,8.07
2022-11-04T01:46:23.291Z,7.95
2022-11-04T01:48:51.541Z,8.00
2022-11-04T01:51:18.304Z,7.94
2022-11-04T01:53:46.018Z,7.92
2022-11-04T01:56:15.543Z,7.87
2022-11-04T01:58:55.963Z,7.77
2022-11-04T02:01:22.617Z,7.78
2022-11-04T02:03:53.210Z,7.77
2022-11-04T02:06:22.095Z,7.68
2022-11-04T02:08:49.537Z,7.63
2022-11-04T02:11:36.632Z,7.61
2022-11-04T02:14:03.268Z,7.64
2022-11-04T02:16:39.168Z,7.60
2022-11-04T02:19:24.081Z,7.58
2022-11-04T02:21:53.488Z,7.59
2022-11-04T02:24:22.994Z,7.58
2022-11-04T02:27:11.914Z,7.57
2022-11-04T02:29:59.972Z,7.61
2022-11-04T02:32:26.442Z,7.55
2022-11-04T02:35:00.187Z,7.45
2022-11-04T02:37:54.696Z,7.52
2022-11-04T02:40:42.097Z,7.52
2022-11-04T02:43:40.729Z,7.48
2022-11-04T02:46:18.760Z,7.46
2022-11-04T02:48:51.008Z,7.47
2022-11-04T02:51:27.040Z,7.42
2022-11-04T02:54:02.730Z,7.46
2022-11-04T02:56:31.936Z,7.45
2022-11-04T02:59:05.177Z,7.46
2022-11-04T03:01:36.225Z,7.43
2022-11-04T03:04:16.013Z,7.34
2022-11-04T03:06:45.643Z,7.44
2022-11-04T03:09:15.178Z,7.41
2022-11-04T03:11:46.043Z,7.30
2022-11-04T03:14:24.108Z,7.25
2022-11-04T03:16:54.744Z,7.30
2022-11-04T03:19:34.366Z,7.28
2022-11-04T03:22:08.039Z,7.25
2022-11-04T03:24:34.579Z,7.23
2022-11-04T03:27:09.069Z,7.11
2022-11-04T03:29:40.607Z,7.19
2022-11-04T03:32:31.880Z,7.21
2022-11-04T03:34:58.527Z,7.15
2022-11-04T03:37:25.087Z,7.24
2022-11-04T03:39:51.647Z,7.22
2022-11-04T03:42:20.559Z,7.14
2022-11-04T03:44:50.465Z,7.25
2022-11-04T03:47:18.438Z,7.16
2022-11-04T03:49:47.364Z,7.24
2022-11-04T03:52:14.934Z,7.17
2022-11-04T03:54:42.182Z,7.11
2022-11-04T03:57:34.054Z,7.26
2022-11-04T04:00:19.787Z,7.31
2022-11-04T04:02:52.238Z,7.30
2022-11-04T04:05:31.347Z,7.29
2022-11-04T04:08:25.791Z,7.32
2022-11-04T04:10:55.129Z,7.31
2022-11-04T04:13:35.077Z,7.37
2022-11-04T04:16:09.117Z,7.30
2022-11-04T04:18:58.841Z,7.30
2022-11-04T04:21:58.995Z,7.36
2022-11-04T04:24:51.511Z,7.29
2022-11-04T04:27:30.876Z,7.19
2022-11-04T04:30:01.609Z,7.31
2022-11-04T04:32:33.024Z,7.23
2022-11-04T04:35:18.173Z,7.33
2022-11-04T04:37:46.248Z,7.20
2022-11-04T04:40:36.147Z,7.22
2022-11-04T04:43:21.200Z,7.31
2022-11-04T04:45:56.268Z,7.32
2022-11-04T04:48:22.792Z,7.35
2022-11-04T04:50:52.821Z,7.28
2022-11-04T04:53:19.273Z,7.25
2022-11-04T04:55:45.785Z,7.18
2022-11-04T04:58:12.319Z,7.21
2022-11-04T05:00:38.857Z,7.22
2022-11-04T05:03:05.741Z,7.15
2022-11-04T05:05:32.419Z,7.21
2022-11-04T05:08:09.327Z,7.29
2022-11-04T05:10:36.087Z,7.30
2022-11-04T05:13:21.158Z,7.30
2022-11-04T05:15:47.646Z,7.43
2022-11-04T05:18:14.216Z,7.42
2022-11-04T05:20:40.764Z,7.35
2022-11-04T05:23:08.451Z,7.34
2022-11-04T05:25:35.076Z,7.31
2022-11-04T05:28:02.277Z,7.25
2022-11-04T05:30:28.991Z,7.22
2022-11-04T05:32:59.807Z,7.26
2022-11-04T05:35:30.188Z,7.29
2022-11-04T05:37:57.078Z,7.37
2022-11-04T05:40:24.244Z,7.51
2022-11-04T05:42:50.731Z,7.71
2022-11-04T05:45:17.434Z,7.73
2022-11-04T05:47:43.910Z,7.87
2022-11-04T05:50:10.549Z,7.67
2022-11-04T05:52:37.123Z,7.60
2022-11-04T05:55:03.743Z,7.56
2022-11-04T05:57:30.272Z,7.63
2022-11-04T05:59:56.745Z,7.65
2022-11-04T06:02:23.457Z,7.72
2022-11-04T06:04:50.062Z,7.73
2022-11-04T06:07:16.587Z,7.82
2022-11-04T06:09:43.064Z,7.82
2022-11-04T06:12:12.319Z,7.75
2022-11-04T06:14:38.813Z,7.65
2022-11-04T06:17:05.366Z,7.59
2022-11-04T06:19:31.939Z,7.55
2022-11-04T06:21:59.633Z,7.61
2022-11-04T06:24:26.400Z,7.60
2022-11-04T06:26:53.090Z,7.73
2022-11-04T06:29:19.699Z,7.61
2022-11-04T06:31:46.314Z,7.63
2022-11-04T06:34:12.860Z,7.67
2022-11-04T06:36:39.632Z,7.89
2022-11-04T06:39:06.340Z,7.75
2022-11-04T06:41:33.090Z,7.66
2022-11-04T06:43:59.561Z,7.71
2022-11-04T06:46:27.745Z,7.90
2022-11-04T06:48:55.980Z,7.67
2022-11-04T06:51:22.957Z,7.78
2022-11-04T06:53:49.456Z,7.87
2022-11-04T06:56:15.973Z,7.89
2022-11-04T06:58:42.560Z,7.77
2022-11-04T07:01:15.907Z,8.10
2022-11-04T07:03:49.601Z,8.27
2022-11-04T07:06:16.487Z,8.14
2022-11-04T07:08:42.940Z,8.12
2022-11-04T07:11:09.587Z,8.38
2022-11-04T07:13:36.166Z,8.45
2022-11-04T07:16:06.155Z,8.39
2022-11-04T07:18:33.062Z,8.48
2022-11-04T07:21:00.201Z,8.46
2022-11-04T07:23:26.811Z,8.54
2022-11-04T07:25:54.378Z,8.35
2022-11-04T07:28:21.232Z,8.34
2022-11-04T07:30:47.808Z,8.35
2022-11-04T07:33:14.313Z,8.32
2022-11-04T07:35:40.834Z,8.27
2022-11-04T07:38:07.778Z,8.29
2022-11-04T07:40:34.562Z,8.16
2022-11-04T07:43:01.743Z,8.15
2022-11-04T07:45:28.293Z,8.18
2022-11-04T07:47:54.841Z,8.45
2022-11-04T07:50:21.685Z,8.42
2022-11-04T07:52:48.794Z,8.60
2022-11-04T07:55:18.487Z,8.65
2022-11-04T07:57:46.147Z,8.69
2022-11-04T08:00:15.287Z,8.71
2022-11-04T08:02:46.888Z,8.57
2022-11-04T08:05:16.851Z,8.79
2022-11-04T08:07:43.816Z,8.78
2022-11-04T08:10:10.479Z,8.87
2022-11-04T08:12:38.323Z,8.74
2022-11-04T08:15:05.443Z,8.71
2022-11-04T08:17:32.011Z,8.65
2022-11-04T08:19:58.546Z,8.77
2022-11-04T08:22:28.866Z,8.91
2022-11-04T08:24:59.209Z,9.23
2022-11-04T08:27:25.711Z,9.15
2022-11-04T08:29:52.296Z,9.19
2022-11-04T08:32:19.000Z,8.93
2022-11-04T08:34:45.581Z,8.80
2022-11-04T08:37:16.626Z,9.03
2022-11-04T08:39:43.578Z,9.19
2022-11-04T08:42:10.427Z,8.98
2022-11-04T08:44:39.304Z,8.86
2022-11-04T08:47:06.454Z,8.89
2022-11-04T08:49:37.966Z,8.95
2022-11-04T08:52:04.765Z,9.01
2022-11-04T08:54:31.351Z,8.87
2022-11-04T08:56:57.906Z,9.15
2022-11-04T08:59:25.331Z,9.26
2022-11-04T09:01:52.525Z,9.17
2022-11-04T09:04:19.901Z,9.33
2022-11-04T09:06:47.251Z,9.52
2022-11-04T09:09:15.746Z,9.44
2022-11-04T09:11:44.311Z,9.44
2022-11-04T09:14:11.569Z,9.45
2022-11-04T09:16:39.746Z,9.55
2022-11-04T09:19:07.148Z,9.62
2022-11-04T09:21:33.760Z,9.65
2022-11-04T09:24:00.313Z,9.44
2022-11-04T09:26:26.907Z,9.52
2022-11-04T09:28:55.524Z,9.56
2022-11-04T09:31:22.425Z,9.54
2022-11-04T09:33:49.484Z,9.58
2022-11-04T09:36:16.310Z,9.78
2022-11-04T09:38:44.965Z,10.08
2022-11-04T09:41:33.653Z,10.06
2022-11-04T09:44:12.057Z,10.16
2022-11-04T09:46:39.538Z,10.08
2022-11-04T09:49:08.667Z,9.94
2022-11-04T09:51:53.865Z,10.09
2022-11-04T09:54:29.542Z,10.21
2022-11-04T09:56:59.760Z,10.42
2022-11-04T09:59:31.949Z,10.55
2022-11-04T10:02:26.701Z,10.03
2022-11-04T10:05:22.958Z,10.07
2022-11-04T10:08:05.663Z,10.19
2022-11-04T10:10:56.227Z,10.66
2022-11-04T10:13:50.959Z,10.64
2022-11-04T10:16:36.397Z,10.41
2022-11-04T10:19:18.611Z,10.64
2022-11-04T10:22:01.975Z,10.83
2022-11-04T10:24:53.464Z,10.64
2022-11-04T10:27:25.066Z,10.70
2022-11-04T10:30:13.212Z,10.37
2022-11-04T10:32:52.859Z,10.73
2022-11-04T10:35:22.278Z,10.87
2022-11-04T10:37:53.242Z,10.99
2022-11-04T10:40:27.119Z,10.94
2022-11-04T10:42:54.138Z,10.90
2022-11-04T10:45:27.574Z,11.22
2022-11-04T10:48:03.638Z,10.92
2022-11-04T10:50:42.324Z,11.13
2022-11-04T10:53:18.920Z,11.57
2022-11-04T10:55:54.345Z,11.41
2022-11-04T10:58:39.515Z,11.20
2022-11-04T11:01:25.047Z,11.04
2022-11-04T11:03:51.784Z,11.02
2022-11-04T11:06:24.280Z,11.50
2022-11-04T11:08:54.269Z,11.50
2022-11-04T11:11:45.413Z,11.54
2022-11-04T11:14:17.945Z,11.99
2022-11-04T11:16:45.845Z,11.92
2022-11-04T11:19:12.268Z,12.46
2022-11-04T11:21:53.796Z,11.96
2022-11-04T11:24:26.696Z,12.07
2022-11-04T11:26:56.546Z,12.10
2022-11-04T11:29:29.556Z,12.37
2022-11-04T11:31:57.661Z,11.81
2022-11-04T11:34:32.827Z,12.12
2022-11-04T11:37:05.250Z,11.99
2022-11-04T11:39:34.650Z,11.78
2022-11-04T11:42:08.158Z,12.05
2022-11-04T11:44:44.126Z,12.00
2022-11-04T11:47:31.534Z,12.07
2022-11-04T11:50:11.532Z,11.96
2022-11-04T11:52:38.503Z,11.95
2022-11-04T11:55:20.174Z,11.44
2022-11-04T12:01:22.092Z,11.70
2022-11-04T12:10:18.473Z,11.68
2022-11-04T12:13:00.029Z,12.04
2022-11-04T12:15:59.041Z,11.43
2022-11-04T12:18:31.476Z,11.58
2022-11-04T12:21:21.468Z,11.81
2022-11-04T12:24:01.208Z,11.70
2022-11-04T12:26:51.573Z,12.05
2022-11-04T12:29:30.326Z,11.77
2022-11-04T12:32:37.654Z,11.59
2022-11-04T12:35:08.908Z,11.45
2022-11-04T12:37:48.249Z,11.37
2022-11-04T12:41:04.900Z,11.66
2022-11-04T12:43:52.336Z,11.60
2022-11-04T12:46:21.521Z,11.67
2022-11-04T12:49:18.455Z,11.73
2022-11-04T12:52:08.445Z,11.86
2022-11-04T12:54:34.975Z,11.68
2022-11-04T12:57:39.952Z,11.56
2022-11-04T13:00:14.132Z,11.50
2022-11-04T13:02:48.238Z,11.72
2022-11-04T13:06:02.691Z,11.92
2022-11-04T13:08:33.868Z,12.01
2022-11-04T13:11:23.103Z,12.03
2022-11-04T13:14:01.774Z,12.04
2022-11-04T13:16:31.690Z,12.11
2022-11-04T13:18:59.110Z,12.29
2022-11-04T13:21:30.867Z,12.42
2022-11-04T13:24:04.524Z,12.24
2022-11-04T13:26:32.357Z,12.27
2022-11-04T13:29:11.155Z,12.10
2022-11-04T13:32:15.984Z,10.95
2022-11-04T13:34:51.304Z,10.68
2022-11-04T13:37:29.508Z,10.03
2022-11-04T13:40:11.671Z,9.87
2022-11-04T13:43:38.142Z,9.61
2022-11-04T13:46:32.188Z,9.20
2022-11-04T13:49:11.214Z,9.02
2022-11-04T13:51:39.806Z,8.95
2022-11-04T13:54:14.437Z,8.68
2022-11-04T13:56:42.043Z,8.78
2022-11-04T13:59:23.282Z,9.00
2022-11-04T14:02:12.571Z,9.06
2022-11-04T14:04:41.803Z,8.74
2022-11-04T14:07:11.423Z,8.82
2022-11-04T14:09:44.122Z,8.85
2022-11-04T14:12:10.577Z,8.74
2022-11-04T14:14:51.589Z,8.81
2022-11-04T14:17:33.527Z,8.90
2022-11-04T14:20:09.069Z,8.77
2022-11-04T14:22:43.071Z,8.69
2022-11-04T14:25:33.178Z,8.75
2022-11-04T14:28:18.114Z,8.87
2022-11-04T14:30:46.711Z,8.98
2022-11-04T14:33:23.153Z,8.93
2022-11-04T14:35:53.007Z,9.06
2022-11-04T14:38:32.640Z,9.09
2022-11-04T14:41:29.721Z,9.13
2022-11-04T14:44:01.113Z,9.30
2022-11-04T14:46:36.386Z,9.47
2022-11-04T14:49:03.993Z,9.60
2022-11-04T14:51:32.919Z,9.38
2022-11-04T14:54:20.905Z,9.52
2022-11-04T14:56:47.515Z,9.51
2022-11-04T14:59:27.372Z,9.79
2022-11-04T15:01:55.715Z,9.65
2022-11-04T15:04:27.888Z,9.67
2022-11-04T15:07:01.914Z,9.64
2022-11-04T15:09:39.643Z,9.58
2022-11-04T15:12:27.966Z,9.55
2022-11-04T15:14:55.796Z,9.68
2022-11-04T15:17:26.951Z,9.77
2022-11-04T15:19:56.127Z,9.81
2022-11-04T15:22:24.025Z,9.60
2022-11-04T15:24:51.001Z,9.68
2022-11-04T15:27:19.760Z,9.75
2022-11-04T15:29:59.163Z,9.69
2022-11-04T15:32:26.541Z,9.74
2022-11-04T15:34:54.320Z,9.82
2022-11-04T15:37:24.040Z,9.84
2022-11-04T15:39:53.247Z,9.90
2022-11-04T15:42:37.230Z,10.13
2022-11-04T15:45:22.316Z,10.05
2022-11-04T15:47:49.678Z,10.05
2022-11-04T15:50:23.573Z,9.83
2022-11-04T15:52:54.265Z,9.79
2022-11-04T15:55:25.806Z,9.71
2022-11-04T15:57:53.785Z,9.70
2022-11-04T16:00:24.582Z,9.73
2022-11-04T16:02:55.164Z,9.77
2022-11-04T16:05:27.170Z,9.68
2022-11-04T16:07:58.185Z,9.42
2022-11-04T16:10:34.575Z,9.42
2022-11-04T16:13:16.459Z,9.49
2022-11-04T16:15:50.864Z,9.44
2022-11-04T16:18:26.803Z,9.54
2022-11-04T16:20:54.887Z,9.59
2022-11-04T16:23:24.866Z,9.46
2022-11-04T16:26:05.950Z,9.43
2022-11-04T16:28:38.130Z,9.40
2022-11-04T16:31:23.105Z,9.36
2022-11-04T16:33:50.989Z,9.34
2022-11-04T16:36:24.273Z,9.20
2022-11-04T16:38:55.414Z,9.26
2022-11-04T16:41:23.786Z,9.24
2022-11-04T16:43:50.978Z,9.22
2022-11-04T16:46:18.556Z,9.21
2022-11-04T16:48:45.485Z,9.13
2022-11-04T16:51:18.375Z,9.12
2022-11-04T16:53:49.254Z,9.14
2022-11-04T16:56:18.496Z,9.07
2022-11-04T16:58:45.764Z,8.96
2022-11-04T17:01:13.448Z,8.89
2022-11-04T17:03:41.540Z,8.88
2022-11-04T17:06:08.034Z,8.84
2022-11-04T17:08:34.600Z,8.81
2022-11-04T17:11:01.513Z,8.74
2022-11-04T17:13:33.448Z,8.82
2022-11-04T17:16:03.110Z,8.71
2022-11-04T17:18:34.152Z,8.75
2022-11-04T17:21:05.282Z,8.72
2022-11-04T17:23:31.812Z,8.55
2022-11-04T17:25:58.565Z,8.55
2022-11-04T17:28:25.176Z,8.46
2022-11-04T17:30:51.663Z,8.46
2022-11-04T17:33:19.699Z,8.45
2022-11-04T17:35:49.521Z,8.37
2022-11-04T17:38:17.517Z,8.28
2022-11-04T17:41:02.834Z,8.24
2022-11-04T17:43:47.900Z,8.29
2022-11-04T17:46:33.509Z,8.26
2022-11-04T17:49:20.056Z,8.18
2022-11-04T17:51:50.180Z,8.07
2022-11-04T17:54:17.312Z,8.11
2022-11-04T17:56:44.053Z,8.13
2022-11-04T17:59:12.979Z,8.06
2022-11-04T18:01:40.413Z,8.13
2022-11-04T18:04:07.997Z,8.11
2022-11-04T18:06:37.712Z,8.03
2022-11-04T18:09:06.173Z,8.07
2022-11-04T18:11:51.288Z,7.80
2022-11-04T18:14:18.396Z,7.84
2022-11-04T18:16:47.326Z,8.01
2022-11-04T18:19:14.973Z,8.01
2022-11-04T18:21:41.562Z,7.88
2022-11-04T18:24:08.579Z,7.90
2022-11-04T18:26:35.380Z,7.73
2022-11-04T18:29:02.642Z,7.77
2022-11-04T18:31:34.459Z,7.95
2022-11-04T18:34:04.106Z,7.90
2022-11-04T18:36:33.708Z,7.94
2022-11-04T18:39:00.555Z,7.79
2022-11-04T18:41:27.237Z,7.76
2022-11-04T18:43:53.996Z,7.73
2022-11-04T18:46:20.535Z,7.69
2022-11-04T18:48:51.216Z,7.47
2022-11-04T18:51:21.911Z,7.67
2022-11-04T18:53:49.211Z,7.71
2022-11-04T18:56:18.096Z,7.79
2022-11-04T18:58:47.444Z,7.87
2022-11-04T19:01:13.922Z,7.99
2022-11-04T19:03:40.536Z,7.91
2022-11-04T19:06:12.485Z,7.97
2022-11-04T19:08:45.290Z,7.96
2022-11-04T19:11:18.374Z,7.91
2022-11-04T19:13:44.905Z,7.90
2022-11-04T19:16:12.885Z,7.87
2022-11-04T19:18:40.292Z,7.78
2022-11-04T19:21:10.391Z,7.85
2022-11-04T19:23:37.609Z,7.85
2022-11-04T19:26:16.758Z,7.81
2022-11-04T19:28:48.632Z,7.77
2022-11-04T19:31:20.761Z,7.78
2022-11-04T19:33:47.977Z,7.74
2022-11-04T19:36:16.689Z,7.69
2022-11-04T19:38:43.815Z,7.70
2022-11-04T19:41:33.557Z,7.65
2022-11-04T19:44:05.992Z,7.54
2022-11-04T19:46:33.591Z,7.51
2022-11-04T19:49:00.712Z,7.62
2022-11-04T19:51:32.015Z,7.44
2022-11-04T19:53:59.230Z,7.55
2022-11-04T19:56:26.050Z,7.54
2022-11-04T19:58:52.620Z,7.43
2022-11-04T20:01:19.468Z,7.43
2022-11-04T20:03:46.018Z,7.54
2022-11-04T20:06:14.878Z,7.62
2022-11-04T20:08:43.969Z,7.68
2022-11-04T20:11:11.516Z,7.58
2022-11-04T20:13:44.705Z,7.63
2022-11-04T20:16:16.988Z,7.71
2022-11-04T20:18:45.279Z,7.66
2022-11-04T20:21:12.320Z,7.63
2022-11-04T20:23:38.879Z,7.78
2022-11-04T20:26:20.614Z,7.79
2022-11-04T20:28:47.692Z,7.77
2022-11-04T20:31:18.000Z,7.79
2022-11-04T20:33:46.028Z,7.81
2022-11-04T20:36:14.185Z,7.84
2022-11-04T20:38:40.734Z,7.86
2022-11-04T20:41:18.504Z,7.94
2022-11-04T20:43:46.729Z,8.00
2022-11-04T20:46:19.033Z,8.10
2022-11-04T20:48:46.493Z,8.12
2022-11-04T20:51:17.553Z,8.17
2022-11-04T20:53:45.605Z,8.19
2022-11-04T20:56:15.185Z,8.19
2022-11-04T20:58:43.759Z,8.31
2022-11-04T21:01:15.934Z,8.32
2022-11-04T21:03:45.848Z,8.40
2022-11-04T21:06:12.859Z,8.49
2022-11-04T21:08:39.932Z,8.33
2022-11-04T21:11:07.352Z,8.26
2022-11-04T21:13:34.443Z,8.29
2022-11-04T21:16:01.761Z,8.24
2022-11-04T21:18:28.770Z,8.16
2022-11-04T21:20:55.641Z,8.15
2022-11-04T21:23:22.392Z,8.11
2022-11-04T21:25:48.866Z,7.99
2022-11-04T21:28:16.471Z,7.84
2022-11-04T21:30:46.578Z,7.83
2022-11-04T21:33:13.279Z,7.90
2022-11-04T21:35:41.098Z,7.69
2022-11-04T21:38:09.297Z,7.84
2022-11-04T21:40:36.007Z,7.65
2022-11-04T21:43:02.476Z,7.54
2022-11-04T21:45:28.997Z,7.63
2022-11-04T21:47:55.484Z,7.52
2022-11-04T21:50:22.038Z,7.52
2022-11-04T21:52:48.529Z,7.49
2022-11-04T21:55:15.038Z,7.39
2022-11-04T21:57:41.737Z,7.48
2022-11-04T22:00:10.986Z,7.24
2022-11-04T22:02:43.039Z,7.12
2022-11-04T22:05:13.758Z,7.05
2022-11-04T22:07:59.588Z,7.29
2022-11-04T22:10:27.990Z,7.28
2022-11-04T22:12:55.922Z,7.32
2022-11-04T22:15:40.693Z,7.15
2022-11-04T22:18:07.186Z,7.17
2022-11-04T22:20:37.290Z,7.08
2022-11-04T22:23:04.214Z,6.98
2022-11-04T22:25:31.301Z,6.93
2022-11-04T22:27:57.869Z,6.75
2022-11-04T22:30:25.098Z,6.78
2022-11-04T22:32:52.352Z,6.87
2022-11-04T22:35:18.874Z,6.83
2022-11-04T22:37:45.382Z,6.73
2022-11-04T22:40:12.362Z,6.67
2022-11-04T22:42:39.068Z,6.57
2022-11-04T22:45:06.192Z,6.50
2022-11-04T22:47:32.720Z,6.40
2022-11-04T22:49:59.223Z,6.38
2022-11-04T22:52:25.769Z,6.33
2022-11-04T22:54:52.275Z,6.45
2022-11-04T22:57:18.779Z,6.37
2022-11-04T22:59:45.292Z,6.60
2022-11-04T23:02:11.980Z,6.26
2022-11-04T23:04:40.374Z,6.29
2022-11-04T23:07:07.253Z,6.18
2022-11-04T23:09:34.080Z,6.23
2022-11-04T23:12:19.483Z,6.23
2022-11-04T23:14:46.027Z,6.19
2022-11-04T23:17:40.267Z,5.99
2022-11-04T23:20:10.731Z,6.06
2022-11-04T23:22:56.095Z,6.08
2022-11-04T23:25:22.959Z,6.06
2022-11-04T23:28:11.353Z,6.13
2022-11-04T23:30:43.893Z,6.08
2022-11-04T23:33:12.458Z,6.09
2022-11-04T23:36:03.326Z,6.02
2022-11-04T23:38:30.286Z,5.99
2022-11-04T23:41:19.072Z,5.98
2022-11-04T23:43:45.589Z,5.90
2022-11-04T23:46:30.916Z,6.00
2022-11-04T23:49:16.578Z,5.88
2022-11-04T23:52:01.536Z,5.94
2022-11-04T23:54:46.476Z,5.71
2022-11-04T23:57:33.680Z,5.81
